createdAt,value
2023-01-17T00:00:38.341Z,3.14
2023-01-17T00:05:19.714Z,3.08
2023-01-17T00:09:45.206Z,3.02
2023-01-17T00:13:53.263Z,2.97
2023-01-17T00:18:01.613Z,2.93
2023-01-17T00:22:34.388Z,2.90
2023-01-17T00:26:56.531Z,2.88
2023-01-17T00:31:03.184Z,2.87
2023-01-17T00:35:10.545Z,2.85
2023-01-17T00:39:17.019Z,2.80
2023-01-17T00:43:43.961Z,2.76
2023-01-17T00:48:10.111Z,2.74
2023-01-17T00:52:35.953Z,2.70
2023-01-17T00:57:03.661Z,2.68
2023-01-17T01:01:29.503Z,2.67
2023-01-17T01:05:55.637Z,2.66
2023-01-17T01:10:24.939Z,2.66
2023-01-17T01:14:50.577Z,2.66
2023-01-17T01:19:15.946Z,2.66
2023-01-17T01:23:41.244Z,2.65
2023-01-17T01:28:06.142Z,2.64
2023-01-17T01:32:31.930Z,2.68
2023-01-17T01:36:40.655Z,2.74
2023-01-17T01:40:51.768Z,2.80
2023-01-17T01:45:00.366Z,2.85
2023-01-17T01:49:10.256Z,2.87
2023-01-17T01:53:19.386Z,2.89
2023-01-17T01:57:29.715Z,2.86
2023-01-17T02:01:37.862Z,2.81
2023-01-17T02:05:46.334Z,2.76
2023-01-17T02:09:54.961Z,2.73
2023-01-17T02:14:04.094Z,2.74
2023-01-17T02:18:16.008Z,2.75
2023-01-17T02:22:52.315Z,2.77
2023-01-17T02:27:08.544Z,2.82
2023-01-17T02:31:19.353Z,2.87
2023-01-17T02:35:35.184Z,2.90
2023-01-17T02:39:44.888Z,2.93
2023-01-17T02:43:53.567Z,2.96
2023-01-17T02:48:00.775Z,3.01
2023-01-17T02:52:28.645Z,3.07
2023-01-17T02:56:48.562Z,3.10
2023-01-17T03:01:08.575Z,3.10
2023-01-17T03:05:23.792Z,3.11
2023-01-17T03:09:32.441Z,3.11
2023-01-17T03:13:41.238Z,3.08
2023-01-17T03:17:52.540Z,3.02
2023-01-17T03:22:01.271Z,2.96
2023-01-17T03:26:09.091Z,2.94
2023-01-17T03:30:17.823Z,2.92
2023-01-17T03:34:26.773Z,2.90
2023-01-17T03:38:34.867Z,2.91
2023-01-17T03:42:42.889Z,2.92
2023-01-17T03:46:50.913Z,2.91
2023-01-17T03:50:58.591Z,2.87
2023-01-17T03:55:07.974Z,2.84
2023-01-17T03:59:16.025Z,2.77
2023-01-17T04:03:23.688Z,2.69
2023-01-17T04:07:32.521Z,2.61
2023-01-17T04:11:40.196Z,2.54
2023-01-17T04:15:50.397Z,2.50
2023-01-17T04:19:58.263Z,2.47
2023-01-17T04:24:06.429Z,2.40
2023-01-17T04:28:14.229Z,2.35
2023-01-17T04:32:22.561Z,2.28
2023-01-17T04:36:30.587Z,2.23
2023-01-17T04:40:38.728Z,2.21
2023-01-17T04:44:46.191Z,2.19
2023-01-17T04:48:53.687Z,2.20
2023-01-17T04:53:01.576Z,2.24
2023-01-17T04:57:09.771Z,2.30
2023-01-17T05:01:18.262Z,2.37
2023-01-17T05:05:26.526Z,2.41
2023-01-17T05:09:34.440Z,2.41
2023-01-17T05:13:42.363Z,2.38
2023-01-17T05:17:50.142Z,2.39
2023-01-17T05:22:04.240Z,2.46
2023-01-17T05:26:13.083Z,2.53
2023-01-17T05:30:22.201Z,2.59
2023-01-17T05:34:29.728Z,2.67
2023-01-17T05:38:38.527Z,2.71
2023-01-17T05:42:49.672Z,2.76
2023-01-17T05:46:57.934Z,2.79
2023-01-17T05:51:06.349Z,2.79
2023-01-17T05:55:14.184Z,2.79
2023-01-17T05:59:32.373Z,2.76
2023-01-17T06:03:44.739Z,2.73
2023-01-17T06:07:52.766Z,2.71
2023-01-17T06:12:00.155Z,2.71
2023-01-17T06:16:08.276Z,2.74
2023-01-17T06:20:16.187Z,2.81
2023-01-17T06:24:24.332Z,2.91
2023-01-17T06:28:33.010Z,3.02
2023-01-17T06:32:40.351Z,3.10
2023-01-17T06:36:48.033Z,3.16
2023-01-17T06:41:00.499Z,3.18
2023-01-17T06:45:11.885Z,3.21
2023-01-17T06:49:20.588Z,3.23
2023-01-17T06:53:28.765Z,3.26
2023-01-17T06:57:36.555Z,3.27
2023-01-17T07:01:45.057Z,3.28
2023-01-17T07:05:53.529Z,3.28
2023-01-17T07:10:03.687Z,3.27
2023-01-17T07:14:16.766Z,3.26
2023-01-17T07:18:24.642Z,3.26
2023-01-17T07:22:32.069Z,3.26
2023-01-17T07:26:40.663Z,3.25
2023-01-17T07:30:48.782Z,3.24
2023-01-17T07:34:57.747Z,3.26
2023-01-17T07:39:06.480Z,3.27
2023-01-17T07:43:17.532Z,3.28
2023-01-17T07:47:25.473Z,3.28
2023-01-17T07:51:33.157Z,3.29
2023-01-17T07:55:40.895Z,3.34
2023-01-17T07:59:51.072Z,3.43
2023-01-17T08:03:59.045Z,3.56
2023-01-17T08:08:07.746Z,3.67
2023-01-17T08:12:15.742Z,3.77
2023-01-17T08:16:23.468Z,3.87
2023-01-17T08:20:31.314Z,3.96
2023-01-17T08:24:38.987Z,4.07
2023-01-17T08:28:47.133Z,4.17
2023-01-17T08:32:55.465Z,4.26
2023-01-17T08:37:02.954Z,4.34
2023-01-17T08:41:10.527Z,4.40
2023-01-17T08:45:18.462Z,4.48
2023-01-17T08:49:26.127Z,4.57
2023-01-17T08:53:33.496Z,4.67
2023-01-17T08:57:41.742Z,4.80
2023-01-17T09:01:50.241Z,4.94
2023-01-17T09:06:05.774Z,5.07
2023-01-17T09:10:14.782Z,5.17
2023-01-17T09:14:22.653Z,5.27
2023-01-17T09:18:31.668Z,5.34
2023-01-17T09:22:39.836Z,5.40
2023-01-17T09:26:47.792Z,5.43
2023-01-17T09:30:55.945Z,5.45
2023-01-17T09:35:05.564Z,5.49
2023-01-17T09:39:15.507Z,5.57
2023-01-17T09:43:28.384Z,5.59
2023-01-17T09:47:43.373Z,5.57
2023-01-17T09:51:51.492Z,5.59
2023-01-17T09:56:02.375Z,5.64
2023-01-17T10:00:17.323Z,5.69
2023-01-17T10:04:49.503Z,5.72
2023-01-17T10:09:09.184Z,5.69
2023-01-17T10:13:29.150Z,5.61
2023-01-17T10:17:45.476Z,5.53
2023-01-17T10:22:04.512Z,5.48
2023-01-17T10:26:15.409Z,5.45
2023-01-17T10:30:27.929Z,5.39
2023-01-17T10:34:38.389Z,5.31
2023-01-17T10:38:49.687Z,5.28
2023-01-17T10:43:01.213Z,5.26
2023-01-17T10:47:16.615Z,5.26
2023-01-17T10:51:35.249Z,5.27
2023-01-17T10:55:48.035Z,5.27
2023-01-17T10:59:57.557Z,5.28
2023-01-17T11:04:05.465Z,5.31
2023-01-17T11:08:15.475Z,5.36
2023-01-17T11:12:31.457Z,5.45
2023-01-17T11:16:39.938Z,5.58
2023-01-17T11:20:48.430Z,5.69
2023-01-17T11:24:56.819Z,5.78
2023-01-17T11:29:24.918Z,5.88
2023-01-17T11:33:45.795Z,5.98
2023-01-17T11:38:05.601Z,6.07
2023-01-17T11:42:35.003Z,6.15
2023-01-17T11:46:43.069Z,6.21
2023-01-17T11:50:58.640Z,6.25
2023-01-17T11:55:06.435Z,6.29
2023-01-17T11:59:29.772Z,6.34
2023-01-17T12:04:11.210Z,6.39
2023-01-17T12:08:28.239Z,6.45
2023-01-17T12:13:07.361Z,6.50
2023-01-17T12:17:24.914Z,6.52
2023-01-17T12:21:42.972Z,6.54
2023-01-17T12:26:00.887Z,6.53
2023-01-17T12:30:19.818Z,6.46
2023-01-17T12:34:31.901Z,6.35
2023-01-17T12:38:41.075Z,6.25
2023-01-17T12:42:54.201Z,6.16
2023-01-17T12:47:04.661Z,6.08
2023-01-17T12:51:19.169Z,6.07
2023-01-17T12:55:34.100Z,6.13
2023-01-17T12:59:48.110Z,6.21
2023-01-17T13:04:04.830Z,6.29
2023-01-17T13:08:21.242Z,6.37
2023-01-17T13:12:33.092Z,6.42
2023-01-17T13:16:43.736Z,6.46
2023-01-17T13:21:16.198Z,6.50
2023-01-17T13:25:35.980Z,6.52
2023-01-17T13:29:53.953Z,6.57
2023-01-17T13:34:25.058Z,6.58
2023-01-17T13:38:42.526Z,6.59
2023-01-17T13:42:55.436Z,6.58
2023-01-17T13:47:06.583Z,6.56
2023-01-17T13:51:14.479Z,6.55
2023-01-17T13:55:48.207Z,6.53
2023-01-17T13:59:57.619Z,6.52
2023-01-17T14:04:09.579Z,6.48
2023-01-17T14:08:20.885Z,6.35
2023-01-17T14:12:33.767Z,6.20
2023-01-17T14:16:44.883Z,6.06
2023-01-17T14:21:10.942Z,5.94
2023-01-17T14:25:21.151Z,5.78
2023-01-17T14:29:52.589Z,5.68
2023-01-17T14:34:15.240Z,5.63
2023-01-17T14:38:25.370Z,5.58
2023-01-17T14:42:34.395Z,5.54
2023-01-17T14:46:41.943Z,5.52
2023-01-17T14:50:51.915Z,5.51
2023-01-17T14:54:59.485Z,5.48
2023-01-17T14:59:17.342Z,5.42
2023-01-17T15:03:25.932Z,5.36
2023-01-17T15:07:33.825Z,5.28
2023-01-17T15:11:42.430Z,5.22
2023-01-17T15:15:50.099Z,5.15
2023-01-17T15:20:05.050Z,5.07
2023-01-17T15:24:18.695Z,4.96
2023-01-17T15:28:27.116Z,4.84
2023-01-17T15:32:35.298Z,4.73
2023-01-17T15:36:43.253Z,4.64
2023-01-17T15:40:50.929Z,4.54
2023-01-17T15:45:00.268Z,4.45
2023-01-17T15:49:22.973Z,4.39
2023-01-17T15:53:35.942Z,4.31
2023-01-17T15:57:47.624Z,4.23
2023-01-17T16:01:59.646Z,4.12
2023-01-17T16:06:45.808Z,4.02
2023-01-17T16:10:58.230Z,3.89
2023-01-17T16:15:12.751Z,3.80
2023-01-17T16:19:21.559Z,3.71
2023-01-17T16:23:30.848Z,3.64
2023-01-17T16:27:39.673Z,3.60
2023-01-17T16:31:48.116Z,3.55
2023-01-17T16:35:56.228Z,3.45
2023-01-17T16:40:05.711Z,3.31
2023-01-17T16:44:13.833Z,3.15
2023-01-17T16:48:22.671Z,3.03
2023-01-17T16:52:30.497Z,2.93
2023-01-17T16:56:38.438Z,2.87
2023-01-17T17:00:46.525Z,2.83
2023-01-17T17:04:54.438Z,2.80
2023-01-17T17:09:03.923Z,2.75
2023-01-17T17:13:12.926Z,2.67
2023-01-17T17:17:22.227Z,2.59
2023-01-17T17:21:32.000Z,2.47
2023-01-17T17:25:39.505Z,2.35
2023-01-17T17:29:46.933Z,2.28
2023-01-17T17:33:58.529Z,2.26
2023-01-17T17:38:07.095Z,2.20
2023-01-17T17:42:15.920Z,2.04
2023-01-17T17:46:25.508Z,1.82
2023-01-17T17:50:33.292Z,1.72
2023-01-17T17:54:41.491Z,1.64
2023-01-17T17:58:49.966Z,1.55
2023-01-17T18:02:57.891Z,1.50
2023-01-17T18:07:07.413Z,1.45
2023-01-17T18:11:18.680Z,1.43
2023-01-17T18:15:26.540Z,1.39
2023-01-17T18:19:34.623Z,1.28
2023-01-17T18:23:43.893Z,1.20
2023-01-17T18:27:52.512Z,1.09
2023-01-17T18:32:00.752Z,1.01
2023-01-17T18:36:13.763Z,0.95
2023-01-17T18:40:23.685Z,0.91
2023-01-17T18:44:31.432Z,0.86
2023-01-17T18:48:40.563Z,0.80
2023-01-17T18:52:49.417Z,0.79
2023-01-17T18:56:59.364Z,0.80
2023-01-17T19:01:12.971Z,0.82
2023-01-17T19:05:21.766Z,0.85
2023-01-17T19:09:32.465Z,0.87
2023-01-17T19:13:41.933Z,0.89
2023-01-17T19:17:52.563Z,0.89
2023-01-17T19:22:00.920Z,0.83
2023-01-17T19:26:10.000Z,0.72
2023-01-17T19:30:19.561Z,0.69
2023-01-17T19:34:28.108Z,0.66
2023-01-17T19:38:38.123Z,0.58
2023-01-17T19:42:46.189Z,0.50
2023-01-17T19:46:54.640Z,0.41
2023-01-17T19:51:09.563Z,0.37
2023-01-17T19:55:22.238Z,0.39
2023-01-17T19:59:30.222Z,0.42
2023-01-17T20:03:39.864Z,0.44
2023-01-17T20:07:48.712Z,0.41
2023-01-17T20:11:56.886Z,0.37
2023-01-17T20:16:14.065Z,0.31
2023-01-17T20:20:23.020Z,0.20
2023-01-17T20:24:30.931Z,0.10
2023-01-17T20:28:39.896Z,0.02
2023-01-17T20:32:48.689Z,-0.07
2023-01-17T20:36:59.995Z,-0.13
2023-01-17T20:41:07.539Z,-0.14
2023-01-17T20:45:16.335Z,-0.15
2023-01-17T20:49:24.096Z,-0.38
2023-01-17T20:53:32.777Z,-0.55
2023-01-17T20:57:41.682Z,-0.52
2023-01-17T21:01:50.496Z,-0.45
2023-01-17T21:06:03.138Z,-0.40
2023-01-17T21:10:12.929Z,-0.37
2023-01-17T21:14:21.906Z,-0.42
2023-01-17T21:18:32.258Z,-0.52
2023-01-17T21:22:40.399Z,-0.59
2023-01-17T21:26:51.773Z,-0.63
2023-01-17T21:31:00.490Z,-0.65
2023-01-17T21:35:09.708Z,-0.66
2023-01-17T21:39:19.973Z,-0.67
2023-01-17T21:43:28.253Z,-0.69
2023-01-17T21:47:36.352Z,-0.69
2023-01-17T21:52:02.192Z,-0.66
2023-01-17T21:56:30.450Z,-0.59
2023-01-17T22:00:39.038Z,-0.59
2023-01-17T22:04:46.822Z,-0.65
2023-01-17T22:08:54.711Z,-0.67
2023-01-17T22:13:06.952Z,-0.70
2023-01-17T22:17:14.988Z,-0.74
2023-01-17T22:21:23.759Z,-0.77
2023-01-17T22:25:32.555Z,-0.79
2023-01-17T22:29:40.755Z,-0.80
2023-01-17T22:33:53.021Z,-0.80
2023-01-17T22:38:01.933Z,-0.77
2023-01-17T22:42:10.154Z,-0.76
2023-01-17T22:46:23.054Z,-0.72
2023-01-17T22:50:31.107Z,-0.73
2023-01-17T22:54:39.139Z,-0.76
2023-01-17T22:58:48.999Z,-0.76
2023-01-17T23:02:56.984Z,-0.78
2023-01-17T23:07:04.713Z,-0.86
2023-01-17T23:11:43.956Z,-0.87
2023-01-17T23:16:09.910Z,-0.84
2023-01-17T23:20:18.145Z,-0.79
2023-01-17T23:24:26.159Z,-0.76
2023-01-17T23:28:33.681Z,-0.74
2023-01-17T23:32:44.673Z,-0.82
2023-01-17T23:36:52.292Z,-0.89
2023-01-17T23:41:26.349Z,-0.89
2023-01-17T23:45:33.937Z,-0.81
2023-01-17T23:49:43.534Z,-0.73
2023-01-17T23:53:57.343Z,-0.63
2023-01-17T23:58:05.285Z,-0.53
